createdAt,value
2023-03-07T00:01:17.851Z,31.21
2023-03-07T00:05:17.836Z,31.19
2023-03-07T00:09:17.813Z,31.21
2023-03-07T00:13:17.815Z,31.26
2023-03-07T00:17:17.814Z,31.19
2023-03-07T00:21:17.772Z,31.17
2023-03-07T00:25:17.809Z,31.12
2023-03-07T00:29:17.785Z,31.15
2023-03-07T00:33:17.777Z,31.17
2023-03-07T00:37:17.786Z,31.12
2023-03-07T00:41:17.773Z,31.10
2023-03-07T00:45:17.754Z,31.12
2023-03-07T00:49:17.758Z,31.12
2023-03-07T00:53:17.787Z,31.14
2023-03-07T00:57:17.786Z,31.14
2023-03-07T01:01:17.878Z,31.15
2023-03-07T01:05:17.819Z,31.09
2023-03-07T01:09:17.816Z,31.08
2023-03-07T01:13:17.814Z,31.12
2023-03-07T01:17:17.825Z,31.15
2023-03-07T01:21:17.853Z,31.11
2023-03-07T01:25:17.847Z,31.12
2023-03-07T01:29:17.847Z,31.10
2023-03-07T01:33:17.851Z,31.07
2023-03-07T01:37:17.845Z,31.08
2023-03-07T01:41:17.836Z,31.11
2023-03-07T01:45:17.849Z,31.08
2023-03-07T01:49:17.898Z,31.07
2023-03-07T01:53:17.881Z,31.05
2023-03-07T01:57:17.876Z,31.05
2023-03-07T02:01:17.948Z,31.08
2023-03-07T02:05:17.906Z,31.06
2023-03-07T02:09:17.919Z,31.08
2023-03-07T02:13:17.892Z,31.02
2023-03-07T02:17:17.913Z,31.02
2023-03-07T02:21:17.917Z,31.05
2023-03-07T02:25:17.913Z,31.04
2023-03-07T02:29:17.954Z,31.02
2023-03-07T02:33:17.971Z,31.00
2023-03-07T02:37:17.938Z,31.02
2023-03-07T02:41:17.968Z,31.05
2023-03-07T02:45:17.938Z,31.02
2023-03-07T02:49:17.999Z,30.99
2023-03-07T02:53:18.000Z,31.01
2023-03-07T02:57:18.002Z,30.97
2023-03-07T03:01:18.140Z,31.00
2023-03-07T03:05:18.049Z,30.98
2023-03-07T03:09:18.052Z,30.98
2023-03-07T03:13:18.054Z,30.97
2023-03-07T03:17:18.065Z,30.98
2023-03-07T03:21:18.084Z,30.95
2023-03-07T03:25:18.103Z,30.94
2023-03-07T03:29:18.130Z,30.88
2023-03-07T03:33:18.139Z,30.97
2023-03-07T03:37:18.191Z,30.97
2023-03-07T03:41:18.179Z,30.90
2023-03-07T03:45:18.173Z,30.94
2023-03-07T03:49:18.214Z,30.95
2023-03-07T03:53:18.241Z,30.95
2023-03-07T03:57:18.233Z,30.95
2023-03-07T04:01:18.253Z,30.96
2023-03-07T04:05:18.278Z,30.92
2023-03-07T04:09:18.280Z,30.92
2023-03-07T04:13:18.323Z,30.94
2023-03-07T04:17:18.357Z,30.91
2023-03-07T04:21:18.358Z,30.91
2023-03-07T04:25:18.397Z,30.89
2023-03-07T04:29:18.406Z,30.92
2023-03-07T04:33:18.414Z,30.92
2023-03-07T04:37:18.436Z,30.87
2023-03-07T04:41:18.431Z,30.94
2023-03-07T04:45:18.453Z,30.89
2023-03-07T04:49:18.505Z,30.91
2023-03-07T04:53:18.509Z,30.91
2023-03-07T04:57:18.514Z,30.87
2023-03-07T05:01:18.624Z,30.89
2023-03-07T05:05:18.590Z,30.85
2023-03-07T05:09:18.614Z,30.89
2023-03-07T05:13:18.659Z,30.88
2023-03-07T05:17:18.687Z,30.84
2023-03-07T05:21:18.656Z,30.84
2023-03-07T05:25:18.705Z,30.85
2023-03-07T05:29:18.716Z,30.83
2023-03-07T05:33:18.700Z,30.77
2023-03-07T05:37:18.754Z,30.78
2023-03-07T05:41:18.758Z,30.81
2023-03-07T05:45:18.790Z,30.81
2023-03-07T05:49:18.785Z,30.77
2023-03-07T05:53:18.769Z,30.80
2023-03-07T05:57:18.802Z,30.82
2023-03-07T06:01:18.833Z,30.80
2023-03-07T06:05:18.891Z,30.71
2023-03-07T06:09:19.027Z,30.71
2023-03-07T06:13:19.130Z,30.69
2023-03-07T06:17:19.352Z,30.73
2023-03-07T06:21:19.536Z,30.67
2023-03-07T06:25:19.719Z,30.67
2023-03-07T06:29:19.683Z,30.70
2023-03-07T06:33:19.674Z,30.70
2023-03-07T06:37:19.650Z,30.66
2023-03-07T06:41:20.037Z,30.63
2023-03-07T06:45:20.013Z,30.67
2023-03-07T06:49:19.568Z,30.70
2023-03-07T06:53:19.533Z,30.69
2023-03-07T06:57:19.524Z,30.73
2023-03-07T07:01:19.547Z,31.32
2023-03-07T07:05:19.414Z,31.96
2023-03-07T07:09:19.699Z,32.01
2023-03-07T07:13:20.235Z,32.44
2023-03-07T07:17:20.188Z,32.99
2023-03-07T07:21:20.006Z,33.35
2023-03-07T07:25:19.945Z,33.93
2023-03-07T07:29:19.980Z,34.36
2023-03-07T07:33:20.133Z,34.97
2023-03-07T07:37:19.935Z,35.46
2023-03-07T07:41:20.114Z,35.92
2023-03-07T07:45:20.076Z,36.27
2023-03-07T07:49:20.702Z,36.74
2023-03-07T07:53:20.063Z,36.85
2023-03-07T07:57:22.632Z,37.25
2023-03-07T08:01:20.190Z,37.46
2023-03-07T08:05:20.112Z,37.89
2023-03-07T08:09:20.108Z,38.30
2023-03-07T08:13:20.111Z,38.43
2023-03-07T08:17:20.129Z,38.65
2023-03-07T08:21:20.023Z,38.74
2023-03-07T08:25:20.082Z,39.13
2023-03-07T08:29:20.110Z,39.63
2023-03-07T08:33:19.900Z,39.68
2023-03-07T08:37:20.063Z,39.43
2023-03-07T08:41:19.784Z,39.91
2023-03-07T08:45:22.486Z,39.07
2023-03-07T08:49:20.057Z,38.14
2023-03-07T08:53:19.700Z,36.91
2023-03-07T08:57:20.057Z,36.20
2023-03-07T09:01:19.707Z,35.67
2023-03-07T09:05:20.060Z,34.99
2023-03-07T09:09:19.576Z,34.38
2023-03-07T09:13:19.521Z,34.32
2023-03-07T09:17:19.463Z,34.11
2023-03-07T09:21:19.610Z,34.06
2023-03-07T09:25:19.382Z,34.05
2023-03-07T09:29:19.430Z,34.13
2023-03-07T09:33:19.296Z,34.00
2023-03-07T09:37:19.820Z,31.42
2023-03-07T09:41:19.808Z,31.11
2023-03-07T09:45:20.289Z,29.99
2023-03-07T09:49:19.430Z,28.54
2023-03-07T09:53:20.869Z,30.44
2023-03-07T09:57:19.231Z,31.50
2023-03-07T10:01:19.127Z,32.46
2023-03-07T10:05:19.536Z,33.27
2023-03-07T10:09:19.420Z,33.84
2023-03-07T10:13:19.590Z,34.12
2023-03-07T10:17:19.746Z,34.53
2023-03-07T10:21:19.517Z,34.97
2023-03-07T10:25:19.570Z,35.38
2023-03-07T10:29:20.395Z,35.55
2023-03-07T10:33:29.119Z,36.09
2023-03-07T10:37:19.832Z,36.46
2023-03-07T10:41:19.794Z,36.91
2023-03-07T10:45:20.125Z,32.88
2023-03-07T10:49:20.117Z,34.11
2023-03-07T10:53:20.626Z,34.52
2023-03-07T10:57:19.628Z,35.19
2023-03-07T11:01:19.700Z,36.09
2023-03-07T11:05:19.552Z,36.53
2023-03-07T11:09:19.619Z,37.01
2023-03-07T11:13:19.510Z,37.34
2023-03-07T11:17:19.574Z,37.73
2023-03-07T11:21:19.639Z,30.19
2023-03-07T11:25:19.561Z,29.05
2023-03-07T11:29:19.611Z,29.97
2023-03-07T11:33:19.864Z,30.82
2023-03-07T11:37:22.615Z,29.20
2023-03-07T11:41:20.144Z,30.07
2023-03-07T11:45:19.735Z,29.90
2023-03-07T11:49:21.705Z,30.04
2023-03-07T11:53:19.668Z,30.18
2023-03-07T11:57:19.750Z,30.23
2023-03-07T12:01:19.925Z,30.31
2023-03-07T12:05:20.133Z,30.42
2023-03-07T12:09:20.267Z,30.47
2023-03-07T12:13:20.413Z,30.51
2023-03-07T12:17:20.552Z,30.56
2023-03-07T12:21:20.699Z,30.66
2023-03-07T12:25:21.158Z,30.67
2023-03-07T12:29:21.007Z,30.72
2023-03-07T12:33:21.831Z,30.81
2023-03-07T12:37:21.370Z,30.81
2023-03-07T12:41:21.571Z,30.85
2023-03-07T12:45:21.834Z,30.90
2023-03-07T12:49:21.893Z,31.00
2023-03-07T12:53:22.107Z,30.95
2023-03-07T12:57:22.254Z,30.95
2023-03-07T13:01:22.480Z,30.98
2023-03-07T13:05:22.594Z,30.98
2023-03-07T13:09:22.783Z,31.05
2023-03-07T13:13:24.093Z,31.08
2023-03-07T13:17:23.149Z,31.10
2023-03-07T13:21:23.676Z,31.11
2023-03-07T13:25:25.375Z,31.12
2023-03-07T13:29:23.442Z,31.11
2023-03-07T13:33:23.445Z,31.18
2023-03-07T13:37:25.357Z,31.15
2023-03-07T13:41:23.365Z,31.37
2023-03-07T13:45:23.332Z,31.47
2023-03-07T13:49:24.733Z,31.54
2023-03-07T13:53:23.451Z,31.54
2023-03-07T13:57:24.374Z,31.55
2023-03-07T14:01:23.564Z,31.56
2023-03-07T14:05:23.311Z,31.56
2023-03-07T14:09:23.319Z,31.56
2023-03-07T14:13:23.217Z,31.67
2023-03-07T14:17:23.207Z,31.69
2023-03-07T14:21:23.180Z,31.70
2023-03-07T14:25:23.159Z,31.70
2023-03-07T14:29:23.093Z,31.74
2023-03-07T14:33:23.232Z,31.72
2023-03-07T14:37:23.187Z,31.77
2023-03-07T14:41:23.172Z,31.71
2023-03-07T14:45:23.101Z,31.75
2023-03-07T14:49:23.110Z,31.78
2023-03-07T14:53:23.069Z,31.78
2023-03-07T14:57:23.020Z,31.70
2023-03-07T15:01:23.048Z,31.72
2023-03-07T15:05:23.001Z,31.79
2023-03-07T15:09:22.895Z,31.81
2023-03-07T15:13:23.213Z,31.82
2023-03-07T15:17:23.210Z,31.86
2023-03-07T15:21:22.798Z,31.78
2023-03-07T15:25:25.531Z,31.75
2023-03-07T15:29:22.745Z,31.55
2023-03-07T15:33:22.847Z,31.25
2023-03-07T15:37:22.676Z,31.32
2023-03-07T15:41:22.656Z,31.39
2023-03-07T15:45:22.633Z,31.47
2023-03-07T15:49:22.799Z,31.56
2023-03-07T15:53:22.561Z,31.64
2023-03-07T15:57:22.535Z,31.70
2023-03-07T16:01:22.595Z,31.76
2023-03-07T16:05:22.504Z,31.77
2023-03-07T16:09:22.481Z,31.80
2023-03-07T16:13:22.445Z,31.80
2023-03-07T16:17:22.480Z,31.80
2023-03-07T16:21:22.338Z,31.81
2023-03-07T16:25:22.305Z,31.84
2023-03-07T16:29:22.263Z,31.84
2023-03-07T16:33:22.257Z,31.82
2023-03-07T16:37:22.205Z,31.82
2023-03-07T16:41:22.202Z,31.84
2023-03-07T16:45:22.118Z,31.81
2023-03-07T16:49:22.178Z,31.84
2023-03-07T16:53:22.287Z,31.86
2023-03-07T16:57:22.365Z,31.86
2023-03-07T17:01:22.502Z,31.85
2023-03-07T17:05:22.522Z,31.85
2023-03-07T17:09:22.588Z,31.84
2023-03-07T17:13:22.661Z,31.86
2023-03-07T17:17:22.733Z,31.88
2023-03-07T17:21:22.837Z,31.86
2023-03-07T17:25:22.863Z,31.89
2023-03-07T17:29:22.929Z,31.86
2023-03-07T17:33:23.019Z,31.88
2023-03-07T17:37:23.159Z,31.89
2023-03-07T17:41:23.297Z,31.86
2023-03-07T17:45:23.359Z,31.83
2023-03-07T17:49:23.516Z,31.89
2023-03-07T17:53:23.539Z,31.88
2023-03-07T17:57:23.598Z,31.84
2023-03-07T18:01:23.528Z,31.83
2023-03-07T18:05:23.536Z,31.82
2023-03-07T18:09:23.543Z,31.82
2023-03-07T18:13:23.510Z,31.82
2023-03-07T18:17:23.494Z,31.86
2023-03-07T18:21:23.485Z,31.83
2023-03-07T18:25:25.531Z,31.81
2023-03-07T18:29:23.458Z,31.84
2023-03-07T18:33:23.430Z,31.83
2023-03-07T18:37:23.418Z,31.76
2023-03-07T18:41:23.378Z,31.77
2023-03-07T18:45:23.377Z,31.81
2023-03-07T18:49:23.366Z,31.75
2023-03-07T18:53:23.329Z,31.79
2023-03-07T18:57:23.350Z,31.72
2023-03-07T19:01:23.315Z,31.72
2023-03-07T19:05:23.277Z,31.77
2023-03-07T19:09:23.293Z,31.69
2023-03-07T19:13:23.258Z,31.73
2023-03-07T19:17:23.248Z,31.73
2023-03-07T19:21:23.277Z,31.67
2023-03-07T19:25:23.252Z,31.66
2023-03-07T19:29:23.303Z,31.72
2023-03-07T19:33:23.222Z,31.73
2023-03-07T19:37:23.215Z,31.70
2023-03-07T19:41:23.172Z,31.71
2023-03-07T19:45:23.184Z,31.71
2023-03-07T19:49:23.200Z,31.73
2023-03-07T19:53:23.132Z,31.66
2023-03-07T19:57:23.152Z,31.67
2023-03-07T20:01:23.229Z,31.66
2023-03-07T20:05:23.112Z,31.69
2023-03-07T20:09:23.097Z,31.67
2023-03-07T20:13:23.103Z,31.69
2023-03-07T20:17:23.153Z,31.65
2023-03-07T20:21:23.041Z,31.63
2023-03-07T20:25:23.023Z,31.64
2023-03-07T20:29:23.009Z,31.61
2023-03-07T20:33:23.001Z,31.61
2023-03-07T20:37:22.989Z,31.63
2023-03-07T20:41:22.992Z,31.56
2023-03-07T20:45:22.974Z,31.57
2023-03-07T20:49:22.964Z,31.57
2023-03-07T20:53:22.980Z,31.60
2023-03-07T20:57:22.959Z,31.57
2023-03-07T21:01:23.046Z,31.60
2023-03-07T21:05:23.029Z,31.56
2023-03-07T21:09:23.041Z,31.60
2023-03-07T21:13:23.119Z,31.60
2023-03-07T21:17:23.023Z,31.55
2023-03-07T21:21:23.021Z,31.53
2023-03-07T21:25:23.030Z,31.60
2023-03-07T21:29:23.065Z,31.59
2023-03-07T21:33:23.077Z,31.57
2023-03-07T21:37:23.110Z,31.54
2023-03-07T21:41:23.081Z,31.56
2023-03-07T21:45:25.488Z,31.56
2023-03-07T21:49:23.238Z,31.57
2023-03-07T21:53:23.303Z,31.57
2023-03-07T21:57:23.256Z,31.56
2023-03-07T22:01:23.361Z,31.56
2023-03-07T22:05:23.237Z,31.60
2023-03-07T22:09:23.314Z,31.56
2023-03-07T22:13:23.261Z,31.59
2023-03-07T22:17:23.248Z,31.49
2023-03-07T22:21:23.250Z,31.50
2023-03-07T22:25:23.333Z,31.54
2023-03-07T22:29:23.371Z,31.49
2023-03-07T22:33:23.294Z,31.52
2023-03-07T22:37:23.318Z,31.53
2023-03-07T22:41:23.374Z,31.50
2023-03-07T22:45:23.366Z,31.51
2023-03-07T22:49:23.382Z,31.51
2023-03-07T22:53:25.332Z,31.51
2023-03-07T22:57:23.380Z,31.51
2023-03-07T23:01:23.382Z,31.51
2023-03-07T23:05:23.277Z,31.51
2023-03-07T23:09:23.275Z,31.48
2023-03-07T23:13:23.247Z,31.43
2023-03-07T23:17:23.228Z,31.48
2023-03-07T23:21:23.196Z,31.47
2023-03-07T23:25:23.135Z,31.48
2023-03-07T23:29:23.118Z,31.51
2023-03-07T23:33:23.081Z,31.50
2023-03-07T23:37:23.037Z,31.50
2023-03-07T23:41:22.993Z,31.46
2023-03-07T23:45:22.985Z,31.45
2023-03-07T23:49:22.914Z,31.45
2023-03-07T23:53:22.911Z,31.53
2023-03-07T23:57:22.868Z,31.51
